sensor_id;sensor_type;location;lat;lon;timestamp;P1;durP1;ratioP1;P2;durP2;ratioP2
67108;SDS011;54027;50.786;7.058;2023-02-22T10:08:04;23.80;;;14.65;;
67108;SDS011;54027;50.786;7.058;2023-02-22T10:10:35;27.08;;;14.93;;
67108;SDS011;54027;50.786;7.058;2023-02-22T10:18:37;26.83;;;14.02;;
67108;SDS011;54027;50.786;7.058;2023-02-22T10:26:17;21.67;;;11.80;;
67108;SDS011;54027;50.786;7.058;2023-02-22T10:31:32;22.98;;;11.95;;
67108;SDS011;54027;50.786;7.058;2023-02-22T10:34:04;21.38;;;11.25;;
67108;SDS011;54027;50.786;7.058;2023-02-22T10:39:17;16.38;;;9.52;;
67108;SDS011;54027;50.786;7.058;2023-02-22T10:41:51;17.20;;;10.27;;
67108;SDS011;54027;50.786;7.058;2023-02-22T10:44:21;19.27;;;9.35;;
67108;SDS011;54027;50.786;7.058;2023-02-22T10:46:46;19.00;;;9.73;;
67108;SDS011;54027;50.786;7.058;2023-02-22T10:49:14;14.75;;;8.93;;
67108;SDS011;54027;50.786;7.058;2023-02-22T10:51:46;16.77;;;9.15;;
67108;SDS011;54027;50.786;7.058;2023-02-22T10:54:23;12.88;;;7.60;;
67108;SDS011;54027;50.786;7.058;2023-02-22T10:56:53;14.55;;;8.48;;
67108;SDS011;54027;50.786;7.058;2023-02-22T10:59:30;17.20;;;7.30;;
67108;SDS011;54027;50.786;7.058;2023-02-22T11:01:57;10.75;;;6.88;;
67108;SDS011;54027;50.786;7.058;2023-02-22T11:04:23;12.65;;;7.13;;
67108;SDS011;54027;50.786;7.058;2023-02-22T11:07:12;12.00;;;6.68;;
67108;SDS011;54027;50.786;7.058;2023-02-22T11:09:54;14.02;;;6.80;;
67108;SDS011;54027;50.786;7.058;2023-02-22T11:15:15;11.43;;;6.43;;
67108;SDS011;54027;50.786;7.058;2023-02-22T11:17:43;13.00;;;6.85;;
67108;SDS011;54027;50.786;7.058;2023-02-22T11:20:18;14.70;;;6.95;;
67108;SDS011;54027;50.786;7.058;2023-02-22T11:22:59;13.52;;;7.28;;
67108;SDS011;54027;50.786;7.058;2023-02-22T11:25:27;12.73;;;6.68;;
67108;SDS011;54027;50.786;7.058;2023-02-22T11:27:56;13.60;;;7.88;;
67108;SDS011;54027;50.786;7.058;2023-02-22T11:30:39;13.38;;;7.68;;
67108;SDS011;54027;50.786;7.058;2023-02-22T11:41:33;13.82;;;7.95;;
67108;SDS011;54027;50.786;7.058;2023-02-22T11:43:45;13.77;;;7.50;;
67108;SDS011;54027;50.786;7.058;2023-02-22T11:46:13;15.52;;;7.80;;
67108;SDS011;54027;50.786;7.058;2023-02-22T11:48:59;16.08;;;8.13;;
67108;SDS011;54027;50.786;7.058;2023-02-22T12:05:08;9.73;;;6.75;;
67108;SDS011;54027;50.786;7.058;2023-02-22T12:10:12;13.57;;;7.05;;
67108;SDS011;54027;50.786;7.058;2023-02-22T12:18:34;12.13;;;6.97;;
67108;SDS011;54027;50.786;7.058;2023-02-22T12:21:02;12.38;;;7.28;;
67108;SDS011;54027;50.786;7.058;2023-02-22T12:23:40;12.50;;;7.57;;
67108;SDS011;54027;50.786;7.058;2023-02-22T12:29:01;13.25;;;7.28;;
67108;SDS011;54027;50.786;7.058;2023-02-22T12:43:05;12.98;;;7.65;;
67108;SDS011;54027;50.786;7.058;2023-02-22T12:45:33;14.30;;;7.65;;
67108;SDS011;54027;50.786;7.058;2023-02-22T12:51:05;13.45;;;7.47;;
67108;SDS011;54027;50.786;7.058;2023-02-22T12:53:34;18.00;;;8.07;;
67108;SDS011;54027;50.786;7.058;2023-02-22T12:58:57;11.07;;;7.25;;
67108;SDS011;54027;50.786;7.058;2023-02-22T13:01:33;14.88;;;7.30;;
67108;SDS011;54027;50.786;7.058;2023-02-22T13:04:04;13.15;;;8.00;;
67108;SDS011;54027;50.786;7.058;2023-02-22T13:09:40;16.42;;;7.88;;
67108;SDS011;54027;50.786;7.058;2023-02-22T13:12:32;15.32;;;8.93;;
67108;SDS011;54027;50.786;7.058;2023-02-22T13:15:17;16.05;;;8.70;;
67108;SDS011;54027;50.786;7.058;2023-02-22T13:33:46;17.40;;;9.07;;
67108;SDS011;54027;50.786;7.058;2023-02-22T13:47:48;16.52;;;9.00;;
67108;SDS011;54027;50.786;7.058;2023-02-22T13:53:13;12.07;;;8.68;;
67108;SDS011;54027;50.786;7.058;2023-02-22T13:55:46;14.25;;;8.25;;
67108;SDS011;54027;50.786;7.058;2023-02-22T13:58:17;16.85;;;8.73;;
67108;SDS011;54027;50.786;7.058;2023-02-22T14:06:00;14.40;;;10.00;;
67108;SDS011;54027;50.786;7.058;2023-02-22T14:16:20;12.98;;;8.73;;
67108;SDS011;54027;50.786;7.058;2023-02-22T14:19:01;14.70;;;8.90;;
67108;SDS011;54027;50.786;7.058;2023-02-22T14:22:00;13.07;;;9.15;;
67108;SDS011;54027;50.786;7.058;2023-02-22T14:24:30;15.50;;;9.25;;
67108;SDS011;54027;50.786;7.058;2023-02-22T14:27:07;15.50;;;8.98;;
67108;SDS011;54027;50.786;7.058;2023-02-22T14:29:33;16.38;;;9.57;;
67108;SDS011;54027;50.786;7.058;2023-02-22T14:32:03;14.85;;;9.73;;
67108;SDS011;54027;50.786;7.058;2023-02-22T14:35:14;12.73;;;8.48;;
67108;SDS011;54027;50.786;7.058;2023-02-22T14:37:27;15.90;;;9.27;;
67108;SDS011;54027;50.786;7.058;2023-02-22T14:39:58;18.67;;;10.63;;
67108;SDS011;54027;50.786;7.058;2023-02-22T14:42:50;19.05;;;10.38;;
67108;SDS011;54027;50.786;7.058;2023-02-22T14:45:27;17.92;;;9.55;;
67108;SDS011;54027;50.786;7.058;2023-02-22T14:53:06;14.90;;;9.32;;
67108;SDS011;54027;50.786;7.058;2023-02-22T14:55:40;16.60;;;10.52;;
67108;SDS011;54027;50.786;7.058;2023-02-22T14:58:14;16.40;;;9.97;;
67108;SDS011;54027;50.786;7.058;2023-02-22T15:00:45;15.70;;;9.30;;
67108;SDS011;54027;50.786;7.058;2023-02-22T15:05:48;15.32;;;9.77;;
67108;SDS011;54027;50.786;7.058;2023-02-22T15:08:14;20.27;;;10.27;;
67108;SDS011;54027;50.786;7.058;2023-02-22T15:10:43;14.60;;;9.57;;
67108;SDS011;54027;50.786;7.058;2023-02-22T15:13:20;13.80;;;9.95;;
67108;SDS011;54027;50.786;7.058;2023-02-22T15:16:11;18.42;;;9.05;;
67108;SDS011;54027;50.786;7.058;2023-02-22T15:18:41;14.55;;;9.00;;
67108;SDS011;54027;50.786;7.058;2023-02-22T15:21:20;16.45;;;9.43;;
67108;SDS011;54027;50.786;7.058;2023-02-22T15:23:55;16.15;;;9.93;;
67108;SDS011;54027;50.786;7.058;2023-02-22T15:29:00;18.40;;;12.82;;
67108;SDS011;54027;50.786;7.058;2023-02-22T15:31:30;19.38;;;11.98;;
67108;SDS011;54027;50.786;7.058;2023-02-22T15:36:40;85.22;;;45.40;;
67108;SDS011;54027;50.786;7.058;2023-02-22T15:42:26;34.17;;;18.92;;
67108;SDS011;54027;50.786;7.058;2023-02-22T15:44:51;25.80;;;16.38;;
67108;SDS011;54027;50.786;7.058;2023-02-22T15:47:26;22.52;;;14.75;;
67108;SDS011;54027;50.786;7.058;2023-02-22T15:50:15;28.23;;;15.05;;
67108;SDS011;54027;50.786;7.058;2023-02-22T15:55:43;21.52;;;12.70;;
67108;SDS011;54027;50.786;7.058;2023-02-22T16:00:43;41.22;;;17.88;;
67108;SDS011;54027;50.786;7.058;2023-02-22T16:03:16;36.00;;;18.73;;
67108;SDS011;54027;50.786;7.058;2023-02-22T16:05:52;21.38;;;12.57;;
67108;SDS011;54027;50.786;7.058;2023-02-22T16:11:01;18.73;;;10.65;;
67108;SDS011;54027;50.786;7.058;2023-02-22T16:13:32;21.50;;;11.18;;
67108;SDS011;54027;50.786;7.058;2023-02-22T16:16:00;18.02;;;11.18;;
67108;SDS011;54027;50.786;7.058;2023-02-22T16:18:44;15.00;;;10.90;;
67108;SDS011;54027;50.786;7.058;2023-02-22T16:21:17;21.15;;;13.65;;
67108;SDS011;54027;50.786;7.058;2023-02-22T16:23:49;25.38;;;13.25;;
67108;SDS011;54027;50.786;7.058;2023-02-22T16:26:32;19.63;;;10.68;;
67108;SDS011;54027;50.786;7.058;2023-02-22T16:28:59;17.73;;;10.52;;
67108;SDS011;54027;50.786;7.058;2023-02-22T16:31:27;20.38;;;11.23;;
67108;SDS011;54027;50.786;7.058;2023-02-22T16:33:58;21.20;;;12.38;;
67108;SDS011;54027;50.786;7.058;2023-02-22T16:36:38;17.98;;;11.13;;
67108;SDS011;54027;50.786;7.058;2023-02-22T16:42:06;18.30;;;12.40;;
67108;SDS011;54027;50.786;7.058;2023-02-22T16:44:33;17.95;;;10.57;;
67108;SDS011;54027;50.786;7.058;2023-02-22T16:46:59;17.30;;;11.18;;
67108;SDS011;54027;50.786;7.058;2023-02-22T16:49:24;18.30;;;11.00;;
67108;SDS011;54027;50.786;7.058;2023-02-22T16:51:51;19.40;;;12.88;;
67108;SDS011;54027;50.786;7.058;2023-02-22T16:54:26;18.30;;;12.18;;
67108;SDS011;54027;50.786;7.058;2023-02-22T16:59:20;21.08;;;14.25;;
67108;SDS011;54027;50.786;7.058;2023-02-22T17:01:46;19.30;;;12.18;;
67108;SDS011;54027;50.786;7.058;2023-02-22T17:04:13;16.77;;;10.50;;
67108;SDS011;54027;50.786;7.058;2023-02-22T17:06:41;21.60;;;12.90;;
67108;SDS011;54027;50.786;7.058;2023-02-22T17:09:07;15.68;;;11.57;;
67108;SDS011;54027;50.786;7.058;2023-02-22T17:11:34;25.10;;;12.68;;
67108;SDS011;54027;50.786;7.058;2023-02-22T17:14:00;21.05;;;13.27;;
67108;SDS011;54027;50.786;7.058;2023-02-22T17:16:26;23.45;;;14.95;;
67108;SDS011;54027;50.786;7.058;2023-02-22T17:18:51;24.60;;;15.48;;
67108;SDS011;54027;50.786;7.058;2023-02-22T17:21:16;27.63;;;15.02;;
67108;SDS011;54027;50.786;7.058;2023-02-22T17:23:42;20.70;;;12.32;;
67108;SDS011;54027;50.786;7.058;2023-02-22T17:26:10;22.10;;;14.25;;
67108;SDS011;54027;50.786;7.058;2023-02-22T17:28:38;22.90;;;15.88;;
67108;SDS011;54027;50.786;7.058;2023-02-22T17:31:04;26.10;;;15.63;;
67108;SDS011;54027;50.786;7.058;2023-02-22T17:33:31;27.10;;;15.48;;
67108;SDS011;54027;50.786;7.058;2023-02-22T17:35:59;22.95;;;14.43;;
67108;SDS011;54027;50.786;7.058;2023-02-22T17:38:26;20.45;;;12.77;;
67108;SDS011;54027;50.786;7.058;2023-02-22T17:40:54;24.42;;;13.55;;
67108;SDS011;54027;50.786;7.058;2023-02-22T17:43:22;16.85;;;12.45;;
67108;SDS011;54027;50.786;7.058;2023-02-22T17:45:49;22.48;;;12.57;;
67108;SDS011;54027;50.786;7.058;2023-02-22T17:48:15;21.52;;;12.77;;
67108;SDS011;54027;50.786;7.058;2023-02-22T17:50:42;22.13;;;13.00;;
67108;SDS011;54027;50.786;7.058;2023-02-22T17:53:10;20.70;;;11.63;;
67108;SDS011;54027;50.786;7.058;2023-02-22T17:55:36;17.38;;;11.63;;
67108;SDS011;54027;50.786;7.058;2023-02-22T17:58:03;25.77;;;16.17;;
67108;SDS011;54027;50.786;7.058;2023-02-22T18:00:32;24.25;;;14.95;;
67108;SDS011;54027;50.786;7.058;2023-02-22T18:03:10;20.05;;;12.95;;
67108;SDS011;54027;50.786;7.058;2023-02-22T18:05:38;24.40;;;14.90;;
67108;SDS011;54027;50.786;7.058;2023-02-22T18:08:06;23.65;;;15.73;;
67108;SDS011;54027;50.786;7.058;2023-02-22T18:10:31;28.60;;;15.68;;
67108;SDS011;54027;50.786;7.058;2023-02-22T18:12:56;22.67;;;13.43;;
67108;SDS011;54027;50.786;7.058;2023-02-22T18:15:26;22.13;;;14.82;;
67108;SDS011;54027;50.786;7.058;2023-02-22T18:17:52;24.75;;;15.35;;
67108;SDS011;54027;50.786;7.058;2023-02-22T18:20:18;19.15;;;13.25;;
67108;SDS011;54027;50.786;7.058;2023-02-22T18:23:01;22.35;;;14.38;;
67108;SDS011;54027;50.786;7.058;2023-02-22T18:25:28;20.05;;;13.93;;
67108;SDS011;54027;50.786;7.058;2023-02-22T18:27:54;28.10;;;15.18;;
67108;SDS011;54027;50.786;7.058;2023-02-22T18:30:19;23.88;;;13.15;;
67108;SDS011;54027;50.786;7.058;2023-02-22T18:32:45;28.23;;;14.07;;
67108;SDS011;54027;50.786;7.058;2023-02-22T18:35:11;19.98;;;12.65;;
67108;SDS011;54027;50.786;7.058;2023-02-22T18:37:37;20.88;;;13.77;;
67108;SDS011;54027;50.786;7.058;2023-02-22T18:40:03;22.70;;;13.23;;
67108;SDS011;54027;50.786;7.058;2023-02-22T18:42:34;26.70;;;14.93;;
67108;SDS011;54027;50.786;7.058;2023-02-22T18:45:00;26.15;;;16.75;;
67108;SDS011;54027;50.786;7.058;2023-02-22T18:47:28;22.40;;;13.98;;
67108;SDS011;54027;50.786;7.058;2023-02-22T18:49:54;24.33;;;16.02;;
67108;SDS011;54027;50.786;7.058;2023-02-22T18:52:20;23.77;;;13.90;;
67108;SDS011;54027;50.786;7.058;2023-02-22T18:54:46;23.38;;;14.93;;
67108;SDS011;54027;50.786;7.058;2023-02-22T18:57:13;26.13;;;15.40;;
67108;SDS011;54027;50.786;7.058;2023-02-22T18:59:39;25.45;;;16.70;;
67108;SDS011;54027;50.786;7.058;2023-02-22T19:02:06;20.15;;;13.98;;
67108;SDS011;54027;50.786;7.058;2023-02-22T19:04:36;24.30;;;16.48;;
67108;SDS011;54027;50.786;7.058;2023-02-22T19:07:01;30.08;;;19.10;;
67108;SDS011;54027;50.786;7.058;2023-02-22T19:09:27;25.50;;;16.00;;
67108;SDS011;54027;50.786;7.058;2023-02-22T19:11:54;26.48;;;15.93;;
67108;SDS011;54027;50.786;7.058;2023-02-22T19:14:19;24.73;;;16.40;;
67108;SDS011;54027;50.786;7.058;2023-02-22T19:16:45;31.73;;;17.48;;
67108;SDS011;54027;50.786;7.058;2023-02-22T19:19:13;23.33;;;18.38;;
67108;SDS011;54027;50.786;7.058;2023-02-22T19:21:40;29.27;;;23.17;;
67108;SDS011;54027;50.786;7.058;2023-02-22T19:24:06;40.15;;;34.22;;
67108;SDS011;54027;50.786;7.058;2023-02-22T19:26:31;30.73;;;22.13;;
67108;SDS011;54027;50.786;7.058;2023-02-22T19:28:57;21.17;;;15.68;;
67108;SDS011;54027;50.786;7.058;2023-02-22T19:31:26;21.67;;;13.98;;
67108;SDS011;54027;50.786;7.058;2023-02-22T19:34:01;21.15;;;13.57;;
67108;SDS011;54027;50.786;7.058;2023-02-22T19:36:29;22.90;;;14.25;;
67108;SDS011;54027;50.786;7.058;2023-02-22T19:38:55;22.80;;;13.93;;
67108;SDS011;54027;50.786;7.058;2023-02-22T19:41:22;18.80;;;12.60;;
67108;SDS011;54027;50.786;7.058;2023-02-22T19:43:49;37.08;;;21.88;;
67108;SDS011;54027;50.786;7.058;2023-02-22T19:46:18;25.33;;;15.52;;
67108;SDS011;54027;50.786;7.058;2023-02-22T19:48:49;20.50;;;12.73;;
67108;SDS011;54027;50.786;7.058;2023-02-22T19:51:15;22.15;;;13.10;;
67108;SDS011;54027;50.786;7.058;2023-02-22T19:53:42;18.40;;;13.05;;
67108;SDS011;54027;50.786;7.058;2023-02-22T19:56:15;20.65;;;13.23;;
67108;SDS011;54027;50.786;7.058;2023-02-22T19:58:42;23.42;;;13.80;;
67108;SDS011;54027;50.786;7.058;2023-02-22T20:01:10;21.73;;;13.75;;
67108;SDS011;54027;50.786;7.058;2023-02-22T20:03:37;18.95;;;13.23;;
67108;SDS011;54027;50.786;7.058;2023-02-22T20:06:03;22.95;;;13.13;;
67108;SDS011;54027;50.786;7.058;2023-02-22T20:08:33;19.75;;;12.98;;
67108;SDS011;54027;50.786;7.058;2023-02-22T20:11:00;21.83;;;12.52;;
67108;SDS011;54027;50.786;7.058;2023-02-22T20:13:26;23.67;;;13.80;;
67108;SDS011;54027;50.786;7.058;2023-02-22T20:15:52;16.55;;;12.27;;
67108;SDS011;54027;50.786;7.058;2023-02-22T20:18:18;20.27;;;12.35;;
67108;SDS011;54027;50.786;7.058;2023-02-22T20:20:45;22.02;;;14.50;;
67108;SDS011;54027;50.786;7.058;2023-02-22T20:23:11;22.90;;;12.98;;
67108;SDS011;54027;50.786;7.058;2023-02-22T20:25:36;20.40;;;13.80;;
67108;SDS011;54027;50.786;7.058;2023-02-22T20:28:02;23.05;;;14.20;;
67108;SDS011;54027;50.786;7.058;2023-02-22T20:30:27;19.05;;;12.95;;
67108;SDS011;54027;50.786;7.058;2023-02-22T20:32:53;25.27;;;17.23;;
67108;SDS011;54027;50.786;7.058;2023-02-22T20:35:18;28.63;;;17.50;;
67108;SDS011;54027;50.786;7.058;2023-02-22T20:37:44;31.00;;;18.80;;
67108;SDS011;54027;50.786;7.058;2023-02-22T20:40:09;31.38;;;18.25;;
67108;SDS011;54027;50.786;7.058;2023-02-22T20:42:35;31.10;;;18.50;;
67108;SDS011;54027;50.786;7.058;2023-02-22T20:45:00;24.20;;;14.60;;
67108;SDS011;54027;50.786;7.058;2023-02-22T20:47:28;24.02;;;14.07;;
67108;SDS011;54027;50.786;7.058;2023-02-22T20:49:54;21.77;;;14.40;;
67108;SDS011;54027;50.786;7.058;2023-02-22T20:52:19;32.25;;;20.48;;
67108;SDS011;54027;50.786;7.058;2023-02-22T20:54:45;32.30;;;19.65;;
67108;SDS011;54027;50.786;7.058;2023-02-22T20:57:11;27.52;;;17.23;;
67108;SDS011;54027;50.786;7.058;2023-02-22T20:59:37;21.60;;;15.63;;
67108;SDS011;54027;50.786;7.058;2023-02-22T21:02:03;24.90;;;16.00;;
67108;SDS011;54027;50.786;7.058;2023-02-22T21:04:28;29.35;;;17.55;;
67108;SDS011;54027;50.786;7.058;2023-02-22T21:06:57;28.58;;;18.83;;
67108;SDS011;54027;50.786;7.058;2023-02-22T21:09:26;28.40;;;18.23;;
67108;SDS011;54027;50.786;7.058;2023-02-22T21:11:51;27.33;;;18.08;;
67108;SDS011;54027;50.786;7.058;2023-02-22T21:14:17;28.00;;;17.70;;
67108;SDS011;54027;50.786;7.058;2023-02-22T21:16:44;28.10;;;17.95;;
67108;SDS011;54027;50.786;7.058;2023-02-22T21:19:11;29.05;;;18.15;;
67108;SDS011;54027;50.786;7.058;2023-02-22T21:21:40;26.38;;;16.95;;
67108;SDS011;54027;50.786;7.058;2023-02-22T21:24:06;22.33;;;16.05;;
67108;SDS011;54027;50.786;7.058;2023-02-22T21:26:32;26.17;;;16.92;;
67108;SDS011;54027;50.786;7.058;2023-02-22T21:28:59;27.83;;;18.80;;
67108;SDS011;54027;50.786;7.058;2023-02-22T21:31:28;25.85;;;18.13;;
67108;SDS011;54027;50.786;7.058;2023-02-22T21:33:56;27.50;;;19.00;;
67108;SDS011;54027;50.786;7.058;2023-02-22T21:36:23;51.53;;;30.95;;
67108;SDS011;54027;50.786;7.058;2023-02-22T21:38:51;33.90;;;19.13;;
67108;SDS011;54027;50.786;7.058;2023-02-22T21:41:20;26.40;;;18.85;;
67108;SDS011;54027;50.786;7.058;2023-02-22T21:43:48;35.92;;;20.80;;
67108;SDS011;54027;50.786;7.058;2023-02-22T21:46:15;31.85;;;22.08;;
67108;SDS011;54027;50.786;7.058;2023-02-22T21:48:42;33.55;;;21.75;;
67108;SDS011;54027;50.786;7.058;2023-02-22T21:51:12;31.35;;;20.88;;
67108;SDS011;54027;50.786;7.058;2023-02-22T21:53:46;35.30;;;20.23;;
67108;SDS011;54027;50.786;7.058;2023-02-22T21:56:14;33.22;;;19.83;;
67108;SDS011;54027;50.786;7.058;2023-02-22T21:58:43;34.80;;;20.95;;
67108;SDS011;54027;50.786;7.058;2023-02-22T22:01:09;31.63;;;21.27;;
67108;SDS011;54027;50.786;7.058;2023-02-22T22:03:41;31.95;;;20.88;;
67108;SDS011;54027;50.786;7.058;2023-02-22T22:06:12;33.08;;;21.38;;
67108;SDS011;54027;50.786;7.058;2023-02-22T22:08:39;31.27;;;21.70;;
67108;SDS011;54027;50.786;7.058;2023-02-22T22:11:06;34.67;;;22.08;;
67108;SDS011;54027;50.786;7.058;2023-02-22T22:13:33;28.35;;;20.83;;
67108;SDS011;54027;50.786;7.058;2023-02-22T22:16:18;31.50;;;20.00;;
67108;SDS011;54027;50.786;7.058;2023-02-22T22:18:44;31.20;;;21.25;;
67108;SDS011;54027;50.786;7.058;2023-02-22T22:23:40;37.92;;;23.70;;
67108;SDS011;54027;50.786;7.058;2023-02-22T22:26:06;38.90;;;22.05;;
67108;SDS011;54027;50.786;7.058;2023-02-22T22:28:54;32.78;;;22.60;;
67108;SDS011;54027;50.786;7.058;2023-02-22T22:31:22;31.95;;;20.88;;
67108;SDS011;54027;50.786;7.058;2023-02-22T22:33:50;33.03;;;21.80;;
67108;SDS011;54027;50.786;7.058;2023-02-22T22:36:16;33.88;;;21.35;;
67108;SDS011;54027;50.786;7.058;2023-02-22T22:38:43;36.05;;;23.40;;
67108;SDS011;54027;50.786;7.058;2023-02-22T22:41:11;36.05;;;24.38;;
67108;SDS011;54027;50.786;7.058;2023-02-22T22:43:38;39.13;;;26.20;;
67108;SDS011;54027;50.786;7.058;2023-02-22T22:46:05;44.10;;;26.63;;
67108;SDS011;54027;50.786;7.058;2023-02-22T22:48:32;43.42;;;26.08;;
67108;SDS011;54027;50.786;7.058;2023-02-22T22:51:07;44.65;;;27.15;;
67108;SDS011;54027;50.786;7.058;2023-02-22T22:53:35;43.90;;;27.25;;
67108;SDS011;54027;50.786;7.058;2023-02-22T22:56:06;47.97;;;27.77;;
67108;SDS011;54027;50.786;7.058;2023-02-22T22:58:38;42.45;;;28.05;;
67108;SDS011;54027;50.786;7.058;2023-02-22T23:01:04;44.38;;;26.38;;
67108;SDS011;54027;50.786;7.058;2023-02-22T23:03:31;40.90;;;27.13;;
67108;SDS011;54027;50.786;7.058;2023-02-22T23:06:03;41.33;;;28.02;;
67108;SDS011;54027;50.786;7.058;2023-02-22T23:08:29;42.00;;;28.02;;
67108;SDS011;54027;50.786;7.058;2023-02-22T23:11:07;42.45;;;28.08;;
67108;SDS011;54027;50.786;7.058;2023-02-22T23:13:33;49.65;;;30.35;;
67108;SDS011;54027;50.786;7.058;2023-02-22T23:15:59;49.70;;;31.33;;
67108;SDS011;54027;50.786;7.058;2023-02-22T23:18:25;53.58;;;34.40;;
67108;SDS011;54027;50.786;7.058;2023-02-22T23:20:51;47.83;;;30.85;;
67108;SDS011;54027;50.786;7.058;2023-02-22T23:23:23;52.13;;;33.92;;
67108;SDS011;54027;50.786;7.058;2023-02-22T23:25:59;50.60;;;32.95;;
67108;SDS011;54027;50.786;7.058;2023-02-22T23:28:36;58.25;;;34.08;;
67108;SDS011;54027;50.786;7.058;2023-02-22T23:31:06;51.42;;;34.13;;
67108;SDS011;54027;50.786;7.058;2023-02-22T23:33:34;57.55;;;35.30;;
67108;SDS011;54027;50.786;7.058;2023-02-22T23:35:59;57.10;;;36.35;;
67108;SDS011;54027;50.786;7.058;2023-02-22T23:38:25;55.85;;;35.88;;
67108;SDS011;54027;50.786;7.058;2023-02-22T23:40:50;47.00;;;29.80;;
67108;SDS011;54027;50.786;7.058;2023-02-22T23:43:18;54.92;;;33.72;;
67108;SDS011;54027;50.786;7.058;2023-02-22T23:45:44;56.95;;;36.50;;
67108;SDS011;54027;50.786;7.058;2023-02-22T23:48:11;54.90;;;34.42;;
67108;SDS011;54027;50.786;7.058;2023-02-22T23:50:37;56.47;;;34.53;;
67108;SDS011;54027;50.786;7.058;2023-02-22T23:53:02;57.30;;;36.20;;
67108;SDS011;54027;50.786;7.058;2023-02-22T23:55:30;60.58;;;36.28;;
67108;SDS011;54027;50.786;7.058;2023-02-22T23:57:57;57.00;;;36.03;;
